Time;durP1;ratioP1;P1;durP2;ratioP2;P2;SDS_P1;SDS_P2;PMS_P1;PMS_P2;Temp;Humidity;BMP_temperature;BMP_pressure;BME280_temperature;BME280_humidity;BME280_pressure;Samples;Min_cycle;Max_cycle;Signal;HPM_P1;HPM_P2
2023/06/13 00:01:03;;;;;;;5.80;2.63;;;18.70;97.00;;;;;;5019913;28;20206;-63
2023/06/13 00:03:30;;;;;;;3.30;2.30;;;18.70;97.50;;;;;;5012816;28;20685;-63
2023/06/13 00:06:01;;;;;;;5.75;2.55;;;18.90;97.60;;;;;;5015697;28;20561;-63
2023/06/13 00:08:31;;;;;;;5.28;2.60;;;18.70;96.90;;;;;;4998402;28;20221;-63
2023/06/13 00:10:58;;;;;;;5.47;2.50;;;18.60;97.20;;;;;;5023461;28;20458;-63
2023/06/13 00:13:25;;;;;;;2.45;2.13;;;18.60;97.40;;;;;;5025375;28;20198;-63
2023/06/13 00:15:54;;;;;;;4.88;2.95;;;18.60;97.40;;;;;;5011474;28;20213;-63
2023/06/13 00:18:23;;;;;;;7.13;2.95;;;18.60;97.60;;;;;;5017158;28;20208;-63
2023/06/13 00:20:52;;;;;;;7.25;3.05;;;18.40;96.90;;;;;;5016239;28;20216;-63
2023/06/13 00:23:19;;;;;;;4.43;3.20;;;18.50;97.20;;;;;;4975890;28;20287;-63
2023/06/13 00:25:46;;;;;;;5.05;2.88;;;18.50;96.80;;;;;;5027301;28;20225;-63
2023/06/13 00:28:12;;;;;;;2.78;2.50;;;18.40;97.30;;;;;;5015319;28;20213;-63
2023/06/13 00:30:39;;;;;;;4.72;2.80;;;18.40;97.50;;;;;;5019657;28;20210;-63
2023/06/13 00:33:07;;;;;;;2.85;2.53;;;18.20;97.00;;;;;;5016922;28;20237;-63
2023/06/13 00:35:36;;;;;;;4.20;2.75;;;18.30;97.40;;;;;;5024623;28;20213;-63
2023/06/13 00:38:03;;;;;;;3.67;2.67;;;18.30;98.20;;;;;;4985796;28;20767;-63
2023/06/13 00:40:29;;;;;;;8.38;2.80;;;18.20;97.60;;;;;;5027103;28;20201;-63
2023/06/13 00:42:56;;;;;;;4.40;2.60;;;18.10;97.60;;;;;;5019643;28;20201;-63
2023/06/13 00:45:24;;;;;;;8.27;2.75;;;18.10;98.10;;;;;;5021748;28;20311;-63
2023/06/13 00:47:54;;;;;;;3.50;2.53;;;18.10;98.10;;;;;;5016288;28;20205;-63
2023/06/13 00:50:26;;;;;;;6.00;2.60;;;18.10;97.20;;;;;;5010942;28;20207;-63
2023/06/13 00:52:55;;;;;;;3.25;2.25;;;18.10;97.60;;;;;;5011915;28;20213;-63
2023/06/13 00:55:23;;;;;;;7.78;2.30;;;18.10;97.50;;;;;;5000042;28;20216;-63
2023/06/13 00:57:51;;;;;;;3.28;2.33;;;18.10;97.80;;;;;;5012060;28;20214;-63
2023/06/13 01:00:18;;;;;;;2.20;2.00;;;18.10;97.70;;;;;;5018708;28;21193;-63
2023/06/13 01:02:45;;;;;;;3.13;2.20;;;18.00;97.30;;;;;;5011989;28;20224;-63
2023/06/13 01:05:13;;;;;;;3.85;2.55;;;18.00;98.10;;;;;;4996960;28;20229;-63
2023/06/13 01:07:41;;;;;;;3.53;2.58;;;17.90;97.80;;;;;;5017390;28;20931;-63
2023/06/13 01:10:11;;;;;;;4.43;2.30;;;17.80;98.10;;;;;;4988456;28;20596;-63
2023/06/13 01:12:46;;;;;;;2.75;2.10;;;17.80;98.70;;;;;;5023586;28;20443;-63
2023/06/13 01:15:18;;;;;;;2.78;2.47;;;17.70;98.50;;;;;;5017483;28;20224;-63
2023/06/13 01:17:49;;;;;;;2.67;2.33;;;17.60;98.80;;;;;;5015965;28;20209;-63
2023/06/13 01:20:18;;;;;;;7.30;2.20;;;17.50;98.60;;;;;;5010793;28;20716;-63
2023/06/13 01:22:54;;;;;;;6.60;2.70;;;17.50;98.80;;;;;;5013893;28;20289;-63
2023/06/13 01:25:38;;;;;;;5.25;2.50;;;17.50;99.20;;;;;;4981985;28;20220;-63
2023/06/13 01:28:07;;;;;;;5.32;2.55;;;17.60;99.80;;;;;;5020333;28;20197;-63
2023/06/13 01:30:35;;;;;;;3.88;2.80;;;17.50;99.90;;;;;;5020321;28;20200;-63
2023/06/13 01:33:03;;;;;;;4.38;2.50;;;17.40;99.30;;;;;;5013574;28;20650;-63
2023/06/13 01:35:31;;;;;;;3.08;2.50;;;17.30;99.00;;;;;;5008930;28;20563;-63
2023/06/13 01:37:58;;;;;;;2.85;2.65;;;17.30;99.30;;;;;;5019303;28;20201;-63
2023/06/13 01:40:25;;;;;;;3.63;2.45;;;17.40;99.00;;;;;;4984212;28;20213;-63
2023/06/13 01:42:51;;;;;;;4.28;2.83;;;17.40;99.00;;;;;;5018578;28;20212;-63
2023/06/13 01:45:20;;;;;;;3.95;2.55;;;17.10;99.90;;;;;;5024363;28;20190;-63
2023/06/13 01:47:57;;;;;;;4.07;2.50;;;17.00;99.90;;;;;;5015267;28;20220;-63
2023/06/13 01:50:30;;;;;;;4.70;2.60;;;17.00;99.90;;;;;;5016092;28;20447;-63
2023/06/13 01:53:05;;;;;;;3.90;2.58;;;16.70;99.90;;;;;;5028002;28;20197;-63
2023/06/13 01:55:42;;;;;;;4.57;2.65;;;16.70;99.90;;;;;;4996777;28;20313;-63
2023/06/13 01:58:13;;;;;;;4.68;2.47;;;16.70;99.90;;;;;;5010843;28;20232;-63
2023/06/13 02:00:43;;;;;;;6.80;2.70;;;16.80;99.90;;;;;;5027320;28;20205;-63
2023/06/13 02:03:11;;;;;;;10.63;2.75;;;16.80;99.90;;;;;;5015137;28;20209;-63
2023/06/13 02:05:39;;;;;;;7.18;2.90;;;16.80;99.90;;;;;;5025709;28;20212;-63
2023/06/13 02:08:06;;;;;;;5.35;2.95;;;16.70;99.90;;;;;;5012176;28;20197;-63
2023/06/13 02:10:33;;;;;;;8.48;2.70;;;16.70;99.90;;;;;;4993833;28;20296;-63
2023/06/13 02:13:00;;;;;;;5.82;2.47;;;16.80;99.90;;;;;;5005081;28;20205;-63
2023/06/13 02:15:27;;;;;;;4.35;2.60;;;16.70;99.90;;;;;;5015826;28;20212;-63
2023/06/13 02:17:55;;;;;;;7.20;2.90;;;16.70;99.90;;;;;;5022030;28;20197;-63
2023/06/13 02:20:22;;;;;;;5.18;2.50;;;16.70;99.90;;;;;;5001614;28;21399;-63
2023/06/13 02:22:49;;;;;;;2.92;2.55;;;16.70;99.90;;;;;;5012076;28;20248;-63
2023/06/13 02:25:17;;;;;;;4.60;2.75;;;16.70;99.90;;;;;;4985128;28;20217;-63
2023/06/13 02:27:44;;;;;;;4.50;2.58;;;16.60;99.90;;;;;;5022206;28;20228;-63
2023/06/13 02:30:12;;;;;;;4.40;2.40;;;16.70;99.90;;;;;;5009501;28;20216;-63
2023/06/13 02:32:39;;;;;;;5.10;3.05;;;16.70;99.90;;;;;;4992643;28;20233;-63
2023/06/13 02:35:08;;;;;;;5.22;3.13;;;16.70;99.90;;;;;;5004178;28;20215;-63
2023/06/13 02:37:35;;;;;;;10.02;2.55;;;16.60;99.90;;;;;;5001509;28;20588;-63
2023/06/13 02:40:04;;;;;;;5.13;2.70;;;16.70;99.90;;;;;;4988979;28;21807;-63
2023/06/13 02:42:31;;;;;;;4.60;2.55;;;16.60;99.90;;;;;;5004794;28;20197;-63
2023/06/13 02:44:58;;;;;;;4.32;2.65;;;16.60;99.90;;;;;;5009774;28;20208;-63
2023/06/13 02:47:25;;;;;;;5.10;2.83;;;16.60;99.90;;;;;;5013861;28;20217;-63
2023/06/13 02:49:51;;;;;;;10.75;3.30;;;16.50;99.90;;;;;;5021176;28;20194;-63
2023/06/13 02:52:21;;;;;;;3.78;2.60;;;16.50;99.90;;;;;;5000588;28;20859;-63
2023/06/13 02:54:48;;;;;;;4.65;2.67;;;16.30;99.90;;;;;;5014120;28;20202;-63
2023/06/13 02:57:15;;;;;;;7.07;3.45;;;16.30;99.90;;;;;;4985292;28;20209;-63
2023/06/13 02:59:43;;;;;;;4.25;2.70;;;16.20;99.90;;;;;;5008309;28;20194;-63
2023/06/13 03:02:09;;;;;;;3.20;2.67;;;16.20;99.90;;;;;;5008280;28;20510;-63
2023/06/13 03:04:38;;;;;;;4.53;3.10;;;16.20;99.90;;;;;;5019515;28;20217;-63
2023/06/13 03:07:05;;;;;;;4.28;2.55;;;15.80;99.90;;;;;;5003635;28;20225;-63
2023/06/13 03:09:33;;;;;;;3.95;2.67;;;15.90;99.90;;;;;;5024269;28;20228;-62
2023/06/13 03:12:00;;;;;;;4.30;2.47;;;15.70;99.90;;;;;;4993112;28;21190;-63
2023/06/13 03:14:28;;;;;;;4.75;2.95;;;15.80;99.90;;;;;;5027035;28;20216;-63
2023/06/13 03:16:55;;;;;;;3.95;2.90;;;15.10;99.90;;;;;;5010155;28;20769;-62
2023/06/13 03:19:22;;;;;;;4.72;3.22;;;15.10;99.90;;;;;;5023998;28;20446;-62
2023/06/13 03:21:49;;;;;;;2.78;2.58;;;15.00;99.90;;;;;;5025580;28;20272;-63
2023/06/13 03:24:16;;;;;;;9.10;2.97;;;14.90;99.90;;;;;;5008441;28;20232;-63
2023/06/13 03:26:44;;;;;;;8.73;3.08;;;14.90;99.90;;;;;;5016915;28;20225;-62
2023/06/13 03:29:11;;;;;;;3.47;2.40;;;14.90;99.90;;;;;;4981553;28;20205;-63
2023/06/13 03:31:38;;;;;;;4.65;2.60;;;15.10;99.90;;;;;;4998234;28;20208;-63
2023/06/13 03:34:05;;;;;;;3.45;2.80;;;15.10;99.90;;;;;;5005199;28;20738;-63
2023/06/13 03:36:34;;;;;;;4.07;3.13;;;15.10;99.90;;;;;;5025426;28;20236;-63
2023/06/13 03:39:01;;;;;;;5.60;2.53;;;13.20;99.90;;;;;;4994436;28;20217;-63
2023/06/13 03:41:28;;;;;;;3.08;2.00;;;15.10;99.90;;;;;;5018113;28;20221;-63
2023/06/13 03:43:56;;;;;;;4.88;2.75;;;15.20;99.90;;;;;;4988703;28;20216;-62
2023/06/13 03:46:22;;;;;;;4.05;2.50;;;15.20;99.90;;;;;;5001589;28;20469;-63
2023/06/13 03:48:51;;;;;;;3.10;2.30;;;15.10;99.90;;;;;;5019827;28;20204;-63
2023/06/13 03:51:17;;;;;;;2.78;2.58;;;16.80;99.90;;;;;;5016182;28;20423;-63
2023/06/13 03:53:44;;;;;;;5.35;2.88;;;15.10;99.90;;;;;;5009460;28;20216;-63
2023/06/13 03:56:13;;;;;;;3.15;2.35;;;15.00;99.90;;;;;;5028800;28;20204;-62
2023/06/13 03:58:40;;;;;;;4.75;2.60;;;14.90;99.90;;;;;;5000047;28;20218;-62
2023/06/13 04:01:08;;;;;;;3.42;2.38;;;14.80;99.90;;;;;;5011321;28;20857;-62
2023/06/13 04:03:35;;;;;;;3.65;2.60;;;14.70;99.90;;;;;;5034201;28;20189;-62
2023/06/13 04:06:02;;;;;;;4.80;2.45;;;14.60;99.90;;;;;;5030621;28;20247;-63
2023/06/13 04:08:29;;;;;;;4.30;2.70;;;14.40;99.90;;;;;;5031760;28;20657;-62
2023/06/13 04:10:56;;;;;;;4.30;2.83;;;14.30;99.90;;;;;;5017407;28;20828;-63
2023/06/13 04:13:23;;;;;;;5.03;2.53;;;14.30;99.90;;;;;;5000146;28;20785;-63
2023/06/13 04:15:50;;;;;;;2.88;2.20;;;14.20;99.90;;;;;;5030747;28;20582;-63
2023/06/13 04:18:18;;;;;;;3.78;2.78;;;14.20;99.90;;;;;;5018390;28;20616;-62
2023/06/13 04:20:45;;;;;;;2.40;1.95;;;14.20;99.90;;;;;;5030676;28;20194;-62
2023/06/13 04:23:13;;;;;;;5.45;2.22;;;14.30;99.90;;;;;;5026042;28;20213;-62
2023/06/13 04:25:40;;;;;;;5.47;2.47;;;;;;;;;;5008994;28;20228;-62
2023/06/13 04:28:08;;;;;;;5.07;2.78;;;14.50;99.90;;;;;;5028463;28;20298;-63
2023/06/13 04:30:36;;;;;;;2.10;1.90;;;14.60;99.90;;;;;;5004392;28;20216;-63
2023/06/13 04:33:06;;;;;;;2.70;2.30;;;14.60;99.90;;;;;;5015948;28;20703;-62
2023/06/13 04:35:37;;;;;;;3.03;2.40;;;14.60;99.90;;;;;;5028322;28;20409;-62
2023/06/13 04:38:04;;;;;;;3.90;2.42;;;14.80;99.90;;;;;;5029568;28;20208;-62
2023/06/13 04:40:33;;;;;;;6.10;2.40;;;14.70;99.90;;;;;;5018473;28;20638;-63
2023/06/13 04:43:03;;;;;;;6.75;2.50;;;14.90;99.90;;;;;;5011665;28;20217;-62
2023/06/13 04:45:30;;;;;;;2.67;2.10;;;15.00;99.90;;;;;;5001977;28;20249;-62
2023/06/13 04:48:01;;;;;;;7.53;2.35;;;14.90;99.90;;;;;;5015138;28;20247;-62
2023/06/13 04:50:29;;;;;;;2.75;2.53;;;15.00;99.90;;;;;;5026753;28;20198;-63
2023/06/13 04:52:57;;;;;;;4.82;2.40;;;15.10;99.90;;;;;;5025026;28;21057;-63
2023/06/13 04:55:32;;;;;;;6.53;2.67;;;15.10;99.90;;;;;;5012669;28;20217;-63
2023/06/13 04:57:59;;;;;;;3.70;2.20;;;15.10;99.90;;;;;;5026670;28;20209;-63
2023/06/13 05:00:26;;;;;;;4.20;2.38;;;15.30;99.90;;;;;;4996230;28;20239;-63
2023/06/13 05:02:55;;;;;;;3.70;2.20;;;15.40;99.90;;;;;;5020357;28;20528;-63
2023/06/13 05:05:22;;;;;;;3.60;2.08;;;15.40;99.90;;;;;;5009467;28;20324;-63
2023/06/13 05:07:55;;;;;;;2.97;2.03;;;15.70;99.90;;;;;;5022539;28;20666;-63
2023/06/13 05:10:23;;;;;;;3.00;2.15;;;15.70;99.90;;;;;;5016019;28;20201;-63
2023/06/13 05:12:50;;;;;;;5.10;2.20;;;16.60;99.90;;;;;;5022722;28;20210;-63
2023/06/13 05:15:18;;;;;;;2.78;2.20;;;15.90;99.90;;;;;;4994554;28;20209;-63
2023/06/13 05:17:46;;;;;;;2.03;1.83;;;16.10;99.90;;;;;;5029431;28;20208;-63
2023/06/13 05:20:14;;;;;;;2.80;2.13;;;16.10;99.90;;;;;;5015887;28;20740;-63
2023/06/13 05:22:41;;;;;;;1.98;1.77;;;16.30;99.90;;;;;;5007026;28;20244;-63
2023/06/13 05:25:09;;;;;;;3.60;2.67;;;16.30;99.90;;;;;;5028283;28;20212;-62
2023/06/13 05:27:37;;;;;;;3.40;2.08;;;16.40;99.90;;;;;;4991481;28;21210;-62
2023/06/13 05:30:06;;;;;;;2.30;1.83;;;16.40;99.90;;;;;;5027511;28;20205;-63
2023/06/13 05:32:33;;;;;;;3.63;2.10;;;16.50;99.90;;;;;;4984451;28;20232;-62
2023/06/13 05:35:00;;;;;;;5.47;2.38;;;16.50;99.90;;;;;;5014310;28;20200;-63
2023/06/13 05:37:28;;;;;;;4.05;2.20;;;16.60;99.90;;;;;;5026873;28;20217;-63
2023/06/13 05:39:55;;;;;;;5.50;2.20;;;16.40;99.90;;;;;;5030179;28;20216;-63
2023/06/13 05:42:22;;;;;;;1.83;1.67;;;16.50;99.90;;;;;;5014728;28;20902;-63
2023/06/13 05:44:50;;;;;;;2.97;1.65;;;16.60;99.90;;;;;;5019429;28;20203;-63
2023/06/13 05:47:16;;;;;;;2.20;1.98;;;16.60;99.90;;;;;;4995949;28;20702;-63
2023/06/13 05:49:43;;;;;;;5.40;1.90;;;16.60;99.90;;;;;;5008918;28;20415;-62
2023/06/13 05:52:10;;;;;;;2.72;2.00;;;16.70;99.90;;;;;;5008058;28;20209;-62
2023/06/13 05:54:37;;;;;;;4.90;1.75;;;16.90;99.90;;;;;;5023181;28;20298;-63
2023/06/13 05:57:04;;;;;;;6.07;1.85;;;16.70;99.90;;;;;;5020145;28;20229;-62
2023/06/13 05:59:31;;;;;;;3.83;2.15;;;16.90;99.90;;;;;;4997125;28;20975;-63
2023/06/13 06:01:59;;;;;;;6.65;2.00;;;16.90;99.90;;;;;;5027880;28;20197;-63
2023/06/13 06:04:26;;;;;;;5.57;1.90;;;17.00;99.90;;;;;;4984574;28;20217;-63
2023/06/13 06:06:53;;;;;;;1.70;1.60;;;17.00;99.90;;;;;;5003126;28;20918;-63
2023/06/13 06:09:20;;;;;;;19.27;2.35;;;17.10;99.90;;;;;;5020550;28;20202;-63
2023/06/13 06:11:47;;;;;;;7.15;1.95;;;17.10;99.90;;;;;;5009840;28;20216;-63
2023/06/13 06:14:14;;;;;;;2.20;2.00;;;17.20;99.90;;;;;;5000263;28;20202;-63
2023/06/13 06:16:40;;;;;;;7.78;1.95;;;17.30;99.90;;;;;;5027851;28;20413;-63
2023/06/13 06:19:09;;;;;;;3.97;2.08;;;17.20;99.90;;;;;;4993479;28;20211;-63
2023/06/13 06:21:35;;;;;;;2.50;1.70;;;17.30;99.90;;;;;;5015416;28;20245;-63
2023/06/13 06:24:02;;;;;;;6.70;2.15;;;17.40;99.90;;;;;;4995768;28;20205;-63
2023/06/13 06:26:29;;;;;;;3.45;1.92;;;17.40;99.90;;;;;;5028598;28;20204;-62
2023/06/13 06:28:56;;;;;;;3.00;2.03;;;17.50;99.90;;;;;;5000553;28;20224;-63
2023/06/13 06:31:24;;;;;;;5.30;1.60;;;17.50;99.90;;;;;;5021456;28;20201;-62
2023/06/13 06:33:50;;;;;;;2.33;1.70;;;17.50;99.90;;;;;;4995894;28;20324;-63
2023/06/13 06:36:21;;;;;;;4.30;1.90;;;17.50;99.90;;;;;;4965949;28;20197;-63
2023/06/13 06:38:48;;;;;;;4.45;2.00;;;17.60;99.90;;;;;;5014161;28;20197;-63
2023/06/13 06:41:14;;;;;;;1.70;1.58;;;17.60;99.90;;;;;;4997770;28;21035;-63
2023/06/13 06:43:41;;;;;;;3.78;1.77;;;17.80;99.90;;;;;;5011773;28;20244;-63
2023/06/13 06:46:09;;;;;;;3.10;2.10;;;17.80;99.90;;;;;;5002055;28;20229;-63
2023/06/13 06:48:36;;;;;;;3.90;2.10;;;17.90;99.90;;;;;;5033277;28;20802;-63
2023/06/13 06:51:03;;;;;;;4.95;1.75;;;17.80;99.90;;;;;;4985522;28;20442;-63
2023/06/13 06:53:31;;;;;;;3.33;1.92;;;17.90;99.90;;;;;;5015427;28;20194;-63
2023/06/13 06:55:57;;;;;;;2.58;1.88;;;17.70;99.90;;;;;;5003277;28;20212;-63
2023/06/13 06:58:24;;;;;;;4.05;1.92;;;18.00;99.90;;;;;;5005781;28;20750;-63
2023/06/13 07:00:51;;;;;;;3.85;2.15;;;18.10;99.90;;;;;;4992988;28;20601;-63
2023/06/13 07:03:18;;;;;;;2.70;1.80;;;18.20;99.90;;;;;;5019908;28;20429;-63
2023/06/13 07:05:45;;;;;;;3.25;2.15;;;18.20;99.90;;;;;;4998196;28;20204;-63
2023/06/13 07:08:12;;;;;;;2.42;1.80;;;18.20;99.90;;;;;;5017119;28;20492;-62
2023/06/13 07:10:41;;;;;;;4.00;2.22;;;18.20;99.90;;;;;;5012712;28;20205;-63
2023/06/13 07:13:08;;;;;;;2.60;2.00;;;18.20;99.90;;;;;;4995640;28;20865;-63
2023/06/13 07:15:34;;;;;;;3.65;1.90;;;18.20;99.90;;;;;;5007433;28;20292;-62
2023/06/13 07:18:01;;;;;;;12.57;2.15;;;18.30;99.90;;;;;;5012897;28;20554;-63
2023/06/13 07:20:28;;;;;;;2.10;1.80;;;18.30;99.90;;;;;;5033428;28;20969;-62
2023/06/13 07:22:55;;;;;;;5.55;1.90;;;18.30;99.90;;;;;;4972400;28;20236;-63
2023/06/13 07:25:22;;;;;;;3.38;1.52;;;18.40;99.90;;;;;;5011553;28;20206;-62
2023/06/13 07:27:50;;;;;;;3.25;2.20;;;18.50;99.90;;;;;;5014165;28;20232;-63
2023/06/13 07:30:17;;;;;;;2.88;2.00;;;18.50;99.90;;;;;;5008984;28;20206;-63
2023/06/13 07:32:44;;;;;;;4.22;2.17;;;18.60;99.90;;;;;;5003521;28;20228;-63
2023/06/13 07:35:12;;;;;;;3.10;2.30;;;18.60;99.90;;;;;;5028636;28;20389;-63
2023/06/13 07:37:40;;;;;;;6.95;1.98;;;18.70;99.90;;;;;;4987282;28;20707;-63
2023/06/13 07:40:08;;;;;;;2.03;1.77;;;18.80;99.90;;;;;;5013285;28;20551;-63
2023/06/13 07:42:35;;;;;;;11.20;2.35;;;18.80;99.90;;;;;;5006476;28;20197;-63
2023/06/13 07:45:04;;;;;;;3.50;2.25;;;18.80;99.90;;;;;;5011518;28;20252;-63
2023/06/13 07:47:31;;;;;;;3.22;1.80;;;18.80;99.90;;;;;;5005467;28;20307;-63
2023/06/13 07:49:57;;;;;;;1.73;1.63;;;18.90;99.90;;;;;;5009278;28;20205;-63
2023/06/13 07:52:24;;;;;;;2.78;1.80;;;18.90;99.90;;;;;;4984780;28;20686;-62
2023/06/13 07:54:51;;;;;;;3.83;1.80;;;19.00;99.90;;;;;;5023822;28;20201;-63
2023/06/13 07:57:18;;;;;;;3.40;1.80;;;19.10;99.90;;;;;;5008542;28;20204;-63
2023/06/13 07:59:45;;;;;;;6.28;1.98;;;19.10;99.90;;;;;;5016947;28;20197;-63
2023/06/13 08:02:13;;;;;;;2.25;1.55;;;19.00;99.90;;;;;;4988145;28;20228;-63
2023/06/13 08:04:40;;;;;;;2.40;1.77;;;19.10;99.90;;;;;;5007926;28;20202;-63
2023/06/13 08:07:07;;;;;;;3.08;1.77;;;19.10;99.90;;;;;;4986914;28;20599;-63
2023/06/13 08:09:33;;;;;;;2.85;2.10;;;19.10;99.90;;;;;;5016422;28;20276;-62
2023/06/13 08:12:00;;;;;;;3.40;2.30;;;19.10;99.90;;;;;;4985361;28;20906;-63
2023/06/13 08:14:27;;;;;;;6.15;2.00;;;19.40;99.90;;;;;;5017233;28;20209;-63
2023/06/13 08:16:54;;;;;;;3.70;1.65;;;19.30;99.90;;;;;;5002330;28;20699;-63
2023/06/13 08:19:22;;;;;;;1.98;1.63;;;19.40;99.90;;;;;;5014436;28;20679;-63
2023/06/13 08:21:49;;;;;;;3.20;1.60;;;;;;;;;;5002506;28;20229;-63
2023/06/13 08:24:16;;;;;;;2.53;1.40;;;19.40;99.90;;;;;;4983528;28;20233;-63
2023/06/13 08:26:44;;;;;;;2.42;1.50;;;19.50;99.90;;;;;;5020760;28;20565;-63
2023/06/13 08:29:13;;;;;;;2.63;1.90;;;19.50;99.90;;;;;;5012190;28;20234;-63
2023/06/13 08:31:40;;;;;;;3.08;1.67;;;19.60;99.90;;;;;;5007397;28;20213;-63
2023/06/13 08:34:07;;;;;;;6.70;1.80;;;19.60;99.90;;;;;;5002142;28;20279;-63
2023/06/13 08:36:36;;;;;;;4.18;1.80;;;19.70;99.90;;;;;;5015349;28;20225;-63
2023/06/13 08:39:04;;;;;;;1.65;1.55;;;19.70;99.90;;;;;;4991922;28;20217;-63
2023/06/13 08:41:31;;;;;;;1.60;1.50;;;19.70;99.90;;;;;;5012400;28;20244;-63
2023/06/13 08:43:59;;;;;;;1.88;1.60;;;19.70;99.90;;;;;;5000659;28;20437;-63
2023/06/13 08:46:25;;;;;;;3.25;1.50;;;19.80;99.90;;;;;;5030462;28;20189;-63
2023/06/13 08:48:52;;;;;;;4.60;2.03;;;19.90;99.90;;;;;;5006544;28;20221;-63
2023/06/13 08:51:22;;;;;;;3.58;1.83;;;19.90;99.90;;;;;;5015805;28;20201;-64
2023/06/13 08:53:53;;;;;;;2.00;1.80;;;20.10;99.90;;;;;;5011855;28;20467;-64
2023/06/13 08:56:22;;;;;;;2.65;1.90;;;20.20;99.90;;;;;;4981129;28;21018;-64
2023/06/13 08:58:57;;;;;;;4.53;1.70;;;20.20;99.90;;;;;;5012281;28;20224;-64
2023/06/13 09:01:27;;;;;;;2.92;2.17;;;20.20;99.90;;;;;;5024616;28;20741;-63
2023/06/13 09:03:56;;;;;;;3.72;1.90;;;20.30;99.90;;;;;;5009979;28;20675;-64
2023/06/13 09:06:23;;;;;;;2.75;1.80;;;20.30;99.90;;;;;;5013832;28;20212;-64
2023/06/13 09:08:53;;;;;;;3.13;1.52;;;20.30;99.90;;;;;;5009832;28;20823;-63
2023/06/13 09:11:20;;;;;;;2.33;1.83;;;20.20;99.90;;;;;;4979904;28;20220;-63
2023/06/13 09:13:50;;;;;;;2.58;1.90;;;20.40;99.90;;;;;;5019735;28;20959;-64
2023/06/13 09:16:17;;;;;;;2.15;1.90;;;20.40;99.90;;;;;;5013694;28;20333;-64
2023/06/13 09:18:44;;;;;;;4.50;1.83;;;20.40;99.90;;;;;;5005638;28;20201;-64
2023/06/13 09:21:11;;;;;;;3.67;1.77;;;20.40;99.90;;;;;;5027471;28;20224;-64
2023/06/13 09:23:39;;;;;;;6.68;1.83;;;20.70;99.90;;;;;;4999901;28;20232;-64
2023/06/13 09:26:10;;;;;;;3.30;2.00;;;20.60;99.90;;;;;;4993515;28;21121;-63
2023/06/13 09:28:40;;;;;;;4.03;1.85;;;20.60;99.90;;;;;;5022705;28;20723;-64
2023/06/13 09:31:07;;;;;;;7.07;2.00;;;20.60;99.90;;;;;;5010984;28;20206;-63
2023/06/13 09:33:34;;;;;;;3.33;2.03;;;20.60;99.90;;;;;;5011811;28;20228;-63
2023/06/13 09:36:02;;;;;;;2.13;1.92;;;20.60;99.90;;;;;;5010367;28;20742;-63
2023/06/13 09:38:29;;;;;;;2.30;1.70;;;20.70;99.90;;;;;;4984737;28;21239;-64
2023/06/13 09:40:57;;;;;;;2.63;2.10;;;20.80;99.90;;;;;;5004600;28;20315;-63
2023/06/13 09:43:27;;;;;;;4.50;1.92;;;20.90;99.90;;;;;;4985596;28;20212;-63
2023/06/13 09:45:54;;;;;;;6.57;2.05;;;21.00;99.90;;;;;;5021183;28;20439;-64
2023/06/13 09:48:21;;;;;;;7.15;1.80;;;21.00;99.90;;;;;;5010232;28;20236;-64
2023/06/13 09:50:48;;;;;;;5.40;2.17;;;21.20;99.90;;;;;;5002962;28;21121;-64
2023/06/13 09:53:15;;;;;;;2.63;1.70;;;21.20;99.90;;;;;;5007384;28;20226;-63
2023/06/13 09:55:42;;;;;;;4.63;2.05;;;21.20;99.90;;;;;;5009983;28;20224;-64
2023/06/13 09:58:09;;;;;;;5.10;2.00;;;21.20;99.90;;;;;;4997057;28;20213;-63
2023/06/13 10:00:37;;;;;;;6.63;2.03;;;21.30;99.90;;;;;;5008037;28;20606;-63
2023/06/13 10:03:05;;;;;;;6.07;1.90;;;21.40;99.90;;;;;;5002207;28;20257;-63
2023/06/13 10:05:32;;;;;;;2.20;2.00;;;20.20;99.90;;;;;;5021310;28;20202;-63
2023/06/13 10:07:58;;;;;;;4.60;2.05;;;21.60;99.80;;;;;;5006165;28;20201;-64
2023/06/13 10:10:25;;;;;;;2.17;1.95;;;21.60;99.90;;;;;;5010282;28;20225;-63
2023/06/13 10:12:56;;;;;;;5.32;2.60;;;21.60;99.90;;;;;;5019777;28;20206;-64
2023/06/13 10:15:39;;;;;;;4.20;1.98;;;21.70;99.90;;;;;;4993069;28;20214;-64
2023/06/13 10:18:11;;;;;;;3.92;2.05;;;21.90;99.90;;;;;;5009435;28;20239;-63
2023/06/13 10:20:40;;;;;;;5.00;1.85;;;21.90;99.90;;;;;;5014241;28;20206;-64
2023/06/13 10:23:11;;;;;;;2.70;1.80;;;22.10;99.90;;;;;;5045756;28;20461;-63
2023/06/13 10:25:38;;;;;;;4.00;2.03;;;22.90;99.90;;;;;;5019677;28;20213;-63
2023/06/13 10:28:24;;;;;;;2.88;2.03;;;22.10;99.90;;;;;;5041396;28;20403;-64
2023/06/13 10:31:06;;;;;;;4.68;2.00;;;22.20;99.90;;;;;;5010070;28;20913;-64
2023/06/13 10:33:56;;;;;;;4.82;2.10;;;22.30;99.90;;;;;;5033127;28;20678;-63
2023/06/13 10:36:27;;;;;;;2.20;1.92;;;22.20;98.20;;;;;;5031913;28;20724;-63
2023/06/13 10:39:21;;;;;;;2.25;2.05;;;22.20;99.90;;;;;;5040550;28;20213;-63
2023/06/13 10:41:58;;;;;;;4.25;1.92;;;22.30;98.50;;;;;;5032132;28;20216;-62
2023/06/13 10:44:33;;;;;;;2.10;1.80;;;22.30;97.70;;;;;;5046478;28;20224;-63
2023/06/13 10:47:01;;;;;;;4.38;2.05;;;22.20;98.20;;;;;;5007505;28;20311;-63
2023/06/13 10:49:37;;;;;;;4.30;2.25;;;22.20;97.20;;;;;;5023482;28;20239;-63
2023/06/13 10:52:05;;;;;;;3.00;2.35;;;22.20;97.50;;;;;;5035890;28;20225;-63
2023/06/13 10:54:32;;;;;;;4.70;2.50;;;22.20;98.20;;;;;;5029917;28;20659;-63
2023/06/13 10:57:01;;;;;;;4.15;2.13;;;22.20;97.40;;;;;;5029936;28;20220;-63
2023/06/13 10:59:36;;;;;;;2.83;1.90;;;22.40;98.60;;;;;;5041541;28;21054;-63
2023/06/13 11:02:05;;;;;;;2.88;2.28;;;22.40;98.80;;;;;;5009875;28;20449;-62
2023/06/13 11:04:32;;;;;;;3.83;1.90;;;22.50;98.40;;;;;;5026627;28;20253;-63
2023/06/13 11:07:25;;;;;;;10.45;2.47;;;22.50;98.70;;;;;;5025560;28;20200;-63
2023/06/13 11:10:03;;;;;;;7.10;2.35;;;22.60;97.10;;;;;;5027321;28;20232;-63
2023/06/13 11:12:30;;;;;;;2.05;1.85;;;22.80;96.90;;;;;;5028382;28;20223;-63
2023/06/13 11:14:59;;;;;;;3.20;1.98;;;22.90;97.60;;;;;;5047848;28;20207;-64
2023/06/13 11:17:28;;;;;;;3.38;2.15;;;23.00;95.70;;;;;;5012928;28;20777;-63
2023/06/13 11:19:56;;;;;;;3.10;2.00;;;22.90;95.80;;;;;;5034760;28;20689;-64
2023/06/13 11:22:23;;;;;;;3.55;2.08;;;23.00;96.00;;;;;;5033608;28;20252;-63
2023/06/13 11:24:52;;;;;;;2.38;2.00;;;23.00;95.20;;;;;;5046695;28;20189;-64
2023/06/13 11:27:19;;;;;;;3.63;2.10;;;23.00;95.50;;;;;;5020290;28;20201;-63
2023/06/13 11:29:47;;;;;;;2.15;1.85;;;23.10;93.80;;;;;;5043202;28;20225;-63
2023/06/13 11:32:14;;;;;;;5.82;2.00;;;23.00;94.00;;;;;;5004982;28;20221;-63
2023/06/13 11:34:47;;;;;;;4.47;2.53;;;23.00;94.50;;;;;;5037881;28;20212;-63
2023/06/13 11:37:22;;;;;;;2.78;1.73;;;22.90;93.20;;;;;;5046922;28;20219;-63
2023/06/13 11:39:55;;;;;;;3.65;1.90;;;22.90;93.80;;;;;;5028873;28;20216;-63
2023/06/13 11:42:22;;;;;;;2.50;1.75;;;23.00;93.40;;;;;;5017778;28;20225;-63
2023/06/13 11:44:49;;;;;;;2.97;2.15;;;23.10;91.40;;;;;;5048385;28;20644;-63
2023/06/13 11:47:17;;;;;;;2.65;1.90;;;23.00;91.00;;;;;;5006777;28;21034;-63
2023/06/13 11:49:56;;;;;;;4.53;3.17;;;22.90;91.20;;;;;;5039861;28;20236;-62
2023/06/13 11:52:23;;;;;;;5.68;1.90;;;22.90;91.60;;;;;;5049774;28;20207;-63
2023/06/13 11:54:50;;;;;;;4.80;2.00;;;23.10;91.90;;;;;;5040538;28;20625;-63
2023/06/13 11:57:17;;;;;;;2.95;2.00;;;23.10;92.20;;;;;;5032091;28;20458;-63
2023/06/13 11:59:44;;;;;;;2.45;2.20;;;23.00;91.50;;;;;;5038205;28;20213;-64
2023/06/13 12:02:14;;;;;;;3.67;2.10;;;23.00;90.30;;;;;;5024948;28;20522;-63
2023/06/13 12:04:43;;;;;;;2.72;2.30;;;22.90;90.40;;;;;;5012566;28;20213;-63
2023/06/13 12:07:13;;;;;;;2.22;2.00;;;23.00;90.30;;;;;;5035755;28;20312;-63
2023/06/13 12:09:42;;;;;;;2.45;2.22;;;23.00;90.40;;;;;;5048545;28;20301;-63
2023/06/13 12:12:11;;;;;;;4.75;2.33;;;23.00;90.50;;;;;;5038202;28;20296;-63
2023/06/13 12:14:38;;;;;;;2.92;2.03;;;23.00;90.70;;;;;;5037496;28;20239;-63
2023/06/13 12:17:05;;;;;;;2.78;1.60;;;23.10;91.70;;;;;;5049247;28;20340;-63
2023/06/13 12:19:31;;;;;;;3.08;2.10;;;23.10;92.00;;;;;;5023028;28;20201;-63
2023/06/13 12:22:00;;;;;;;6.15;2.20;;;23.20;91.10;;;;;;5035354;28;20323;-64
2023/06/13 12:24:28;;;;;;;3.95;1.80;;;23.30;91.70;;;;;;5052021;28;20197;-63
2023/06/13 12:26:55;;;;;;;3.65;1.77;;;23.30;90.20;;;;;;5040276;28;20583;-63
2023/06/13 12:29:27;;;;;;;3.65;1.73;;;23.40;90.30;;;;;;5037242;28;20220;-63
2023/06/13 12:31:59;;;;;;;4.25;1.85;;;23.30;90.70;;;;;;5045779;28;20201;-63
2023/06/13 12:34:29;;;;;;;3.88;1.90;;;23.50;90.80;;;;;;5013097;28;20212;-64
2023/06/13 12:37:02;;;;;;;2.47;2.00;;;23.50;90.10;;;;;;5026016;28;20273;-64
2023/06/13 12:39:31;;;;;;;2.28;1.75;;;23.60;90.40;;;;;;5022873;28;20243;-63
2023/06/13 12:42:01;;;;;;;4.43;2.20;;;23.70;90.90;;;;;;5027652;28;20228;-63
2023/06/13 12:44:33;;;;;;;2.25;1.85;;;23.70;88.70;;;;;;5026823;28;20244;-64
2023/06/13 12:47:02;;;;;;;2.33;2.10;;;23.40;87.60;;;;;;5021266;28;21326;-63
2023/06/13 12:49:35;;;;;;;3.42;2.20;;;23.40;89.60;;;;;;5013302;28;21431;-64
2023/06/13 12:52:02;;;;;;;2.78;2.05;;;23.40;89.20;;;;;;5030188;28;20666;-63
2023/06/13 12:54:34;;;;;;;2.80;1.95;;;23.30;86.90;;;;;;5013639;28;20200;-63